createdAt,value
2023-05-20T06:26:22.840Z,13.15
2023-05-20T06:28:32.745Z,13.47
2023-05-20T06:29:34.147Z,13.59
2023-05-20T06:31:46.948Z,13.57
2023-05-20T06:34:00.501Z,13.65
2023-05-20T06:36:17.576Z,13.54
2023-05-20T06:37:19.168Z,13.81
2023-05-20T06:38:21.207Z,13.94
2023-05-20T06:39:22.690Z,14.08
2023-05-20T06:40:24.137Z,14.16
2023-05-20T06:41:26.449Z,14.28
2023-05-20T06:43:50.581Z,13.98
2023-05-20T06:44:54.037Z,13.96
2023-05-20T06:45:55.592Z,14.11
2023-05-20T06:46:57.176Z,14.20
2023-05-20T06:47:58.660Z,14.23
2023-05-20T06:49:00.508Z,14.39
2023-05-20T06:50:01.916Z,14.35
2023-05-20T06:51:04.042Z,14.35
2023-05-20T06:53:07.932Z,14.54
2023-05-20T06:54:09.442Z,14.68
2023-05-20T06:55:11.321Z,14.66
2023-05-20T06:56:12.805Z,14.83
2023-05-20T06:57:14.214Z,14.94
2023-05-20T06:58:15.648Z,15.30
2023-05-20T06:59:17.826Z,15.02
2023-05-20T07:00:19.450Z,15.02
2023-05-20T07:01:20.958Z,14.94
2023-05-20T07:02:23.009Z,15.13
2023-05-20T07:03:24.484Z,15.06
2023-05-20T07:04:25.942Z,15.21
2023-05-20T07:05:28.926Z,15.23
2023-05-20T07:06:31.565Z,15.25
2023-05-20T07:07:32.969Z,15.23
2023-05-20T07:08:34.408Z,15.09
2023-05-20T07:09:35.844Z,15.14
2023-05-20T07:10:37.406Z,15.01
2023-05-20T07:11:38.912Z,15.06
2023-05-20T07:12:40.422Z,15.29
2023-05-20T07:13:41.837Z,15.24
2023-05-20T07:14:43.248Z,15.32
2023-05-20T07:15:48.037Z,15.34
2023-05-20T07:16:49.630Z,15.25
2023-05-20T07:17:51.196Z,15.23
2023-05-20T07:18:52.815Z,15.28
2023-05-20T07:19:54.209Z,15.17
2023-05-20T07:20:56.984Z,15.19
2023-05-20T07:21:58.443Z,15.13
2023-05-20T07:23:01.105Z,15.21
2023-05-20T07:24:02.537Z,15.08
2023-05-20T07:25:04.260Z,15.44
2023-05-20T07:26:05.922Z,15.57
2023-05-20T07:27:08.407Z,15.30
2023-05-20T07:28:09.995Z,15.22
2023-05-20T07:29:11.514Z,15.08
2023-05-20T07:30:13.057Z,15.35
2023-05-20T07:31:14.758Z,15.31
2023-05-20T07:32:16.804Z,15.44
2023-05-20T07:33:19.034Z,15.34
2023-05-20T07:34:20.652Z,15.45
2023-05-20T07:35:22.132Z,15.23
2023-05-20T07:36:23.730Z,15.54
2023-05-20T07:37:25.188Z,15.77
2023-05-20T07:38:26.924Z,15.34
2023-05-20T07:39:29.324Z,15.67
2023-05-20T07:40:30.917Z,15.82
2023-05-20T07:41:32.378Z,15.93
2023-05-20T07:42:34.253Z,15.70
2023-05-20T07:43:35.914Z,15.65
2023-05-20T07:44:37.350Z,15.71
2023-05-20T07:45:38.981Z,15.74
2023-05-20T07:46:41.799Z,15.80
2023-05-20T07:47:43.440Z,15.72
2023-05-20T07:48:45.346Z,15.61
2023-05-20T07:49:46.882Z,15.86
2023-05-20T07:50:48.319Z,15.92
2023-05-20T07:51:49.801Z,15.98
2023-05-20T07:52:56.398Z,15.95
2023-05-20T07:53:58.579Z,15.82
2023-05-20T07:54:59.997Z,16.04
2023-05-20T07:56:01.453Z,16.03
2023-05-20T07:57:02.910Z,16.25
2023-05-20T07:58:04.460Z,16.28
2023-05-20T07:59:06.073Z,16.28
2023-05-20T08:00:09.748Z,16.00
2023-05-20T08:01:17.279Z,16.15
2023-05-20T08:02:18.766Z,16.09
2023-05-20T08:03:22.197Z,16.03
2023-05-20T08:04:23.804Z,15.99
2023-05-20T08:05:25.530Z,16.00
2023-05-20T08:06:29.577Z,16.16
2023-05-20T08:07:31.828Z,16.33
2023-05-20T08:08:33.418Z,16.81
2023-05-20T08:09:34.910Z,17.19
2023-05-20T08:10:36.929Z,17.44
2023-05-20T08:11:38.359Z,17.39
2023-05-20T08:12:39.783Z,17.25
2023-05-20T08:13:41.380Z,17.19
2023-05-20T08:14:44.125Z,17.13
2023-05-20T08:15:45.592Z,17.07
2023-05-20T08:16:47.152Z,16.85
2023-05-20T08:17:48.638Z,16.43
2023-05-20T08:18:50.234Z,16.74
2023-05-20T08:19:51.665Z,17.10
2023-05-20T08:20:53.086Z,17.67
2023-05-20T08:21:54.595Z,17.39
2023-05-20T08:22:56.119Z,17.53
2023-05-20T08:23:57.722Z,18.04
2023-05-20T08:24:59.219Z,18.46
2023-05-20T08:26:03.698Z,18.67
2023-05-20T08:27:05.279Z,18.44
2023-05-20T08:28:07.248Z,18.09
2023-05-20T08:29:08.791Z,18.55
2023-05-20T08:30:10.766Z,18.24
2023-05-20T08:31:12.233Z,18.32
2023-05-20T08:32:13.712Z,18.40
2023-05-20T08:33:15.731Z,17.96
2023-05-20T08:34:17.154Z,18.30
2023-05-20T08:35:18.642Z,18.67
2023-05-20T08:36:20.104Z,18.41
2023-05-20T08:37:21.518Z,18.21
2023-05-20T08:38:23.009Z,18.41
2023-05-20T08:39:25.536Z,18.63
2023-05-20T08:40:27.419Z,18.73
2023-05-20T08:41:29.147Z,17.63
2023-05-20T08:42:30.875Z,17.95
2023-05-20T08:43:32.561Z,17.80
2023-05-20T08:44:35.360Z,17.94
2023-05-20T08:45:38.799Z,18.09
2023-05-20T08:46:41.360Z,18.05
2023-05-20T08:47:43.596Z,17.97
2023-05-20T08:48:45.813Z,17.61
2023-05-20T08:49:49.014Z,17.50
2023-05-20T08:50:52.149Z,17.52
2023-05-20T08:51:53.725Z,17.32
2023-05-20T08:52:55.177Z,17.51
2023-05-20T08:53:56.860Z,17.12
2023-05-20T08:54:59.157Z,17.16
2023-05-20T08:56:03.261Z,16.80
2023-05-20T08:57:05.562Z,16.43
2023-05-20T08:58:07.061Z,16.54
2023-05-20T08:59:09.358Z,16.49
2023-05-20T09:00:13.460Z,16.41
2023-05-20T09:01:15.103Z,16.55
2023-05-20T09:02:17.507Z,16.60
2023-05-20T09:03:20.412Z,16.86
2023-05-20T09:04:21.976Z,17.05
2023-05-20T09:05:23.491Z,17.24
2023-05-20T09:06:25.014Z,17.30
2023-05-20T09:07:28.821Z,17.15
2023-05-20T09:08:31.414Z,16.79
2023-05-20T09:09:35.136Z,16.58
2023-05-20T09:10:38.177Z,16.89
2023-05-20T09:11:41.567Z,17.19
2023-05-20T09:12:43.027Z,16.89
2023-05-20T09:13:44.513Z,17.46
2023-05-20T09:14:45.990Z,17.87
2023-05-20T09:15:47.472Z,18.06
2023-05-20T09:16:49.476Z,18.41
2023-05-20T09:17:51.158Z,18.53
2023-05-20T09:18:56.208Z,18.71
2023-05-20T09:19:57.732Z,19.19
2023-05-20T09:21:05.774Z,19.51
2023-05-20T09:22:07.489Z,20.00
2023-05-20T09:23:10.143Z,19.93
2023-05-20T09:24:11.609Z,19.98
2023-05-20T09:25:14.183Z,19.90
2023-05-20T09:26:18.087Z,19.68
2023-05-20T09:27:21.077Z,19.43
2023-05-20T09:28:25.175Z,19.55
2023-05-20T09:29:27.301Z,19.51
2023-05-20T09:30:28.759Z,19.82
2023-05-20T09:31:34.188Z,19.70
2023-05-20T09:32:35.827Z,19.49
2023-05-20T09:33:37.399Z,19.46
2023-05-20T09:34:38.873Z,19.39
2023-05-20T09:35:40.332Z,19.20
2023-05-20T09:36:43.727Z,19.09
2023-05-20T09:37:47.890Z,19.21
2023-05-20T09:38:53.101Z,19.45
2023-05-20T09:39:59.496Z,19.56
2023-05-20T09:41:08.259Z,19.27
2023-05-20T09:42:18.603Z,19.20
2023-05-20T09:43:20.262Z,19.21
2023-05-20T09:44:23.097Z,19.41
2023-05-20T09:45:24.721Z,19.64
2023-05-20T09:46:27.943Z,19.56
2023-05-20T09:47:30.226Z,19.24
2023-05-20T09:48:34.187Z,19.49
2023-05-20T09:49:36.466Z,19.53
2023-05-20T09:50:39.381Z,19.65
2023-05-20T09:51:42.078Z,19.73
2023-05-20T09:52:44.222Z,19.56
2023-05-20T09:53:45.828Z,19.70
2023-05-20T09:54:48.441Z,19.86
2023-05-20T09:55:52.230Z,19.80
2023-05-20T09:56:54.690Z,19.48
2023-05-20T09:57:56.764Z,19.45
2023-05-20T09:58:59.116Z,19.81
2023-05-20T10:00:01.550Z,19.72
2023-05-20T10:01:03.478Z,19.33
2023-05-20T10:02:06.749Z,19.38
2023-05-20T10:03:08.383Z,19.46
2023-05-20T10:04:13.498Z,19.84
2023-05-20T10:05:21.730Z,19.56
2023-05-20T10:06:40.139Z,19.97
2023-05-20T10:07:42.808Z,19.92
2023-05-20T10:09:02.767Z,20.04
2023-05-20T10:10:33.207Z,20.11
2023-05-20T10:11:52.357Z,20.49
2023-05-20T10:13:09.133Z,20.71
2023-05-20T10:14:22.634Z,20.79
2023-05-20T10:15:55.692Z,20.79
2023-05-20T10:17:24.618Z,21.27
2023-05-20T10:18:26.144Z,21.31
2023-05-20T10:19:31.229Z,21.52
2023-05-20T10:20:32.953Z,20.49
2023-05-20T10:21:34.381Z,20.68
2023-05-20T10:22:36.171Z,20.88
2023-05-20T10:23:37.722Z,20.84
2023-05-20T10:24:41.524Z,20.80
2023-05-20T10:25:54.179Z,20.64
2023-05-20T10:26:55.634Z,20.78
2023-05-20T10:28:09.512Z,20.94
2023-05-20T10:29:22.787Z,20.93
2023-05-20T10:30:24.269Z,20.88
2023-05-20T10:31:26.081Z,21.19
2023-05-20T10:32:31.145Z,21.71
2023-05-20T10:33:42.673Z,21.31
2023-05-20T10:34:50.646Z,21.20
2023-05-20T10:35:52.394Z,20.53
2023-05-20T10:36:53.832Z,20.19
2023-05-20T10:38:07.302Z,20.43
2023-05-20T10:39:18.445Z,20.60
2023-05-20T10:40:21.489Z,20.66
2023-05-20T10:41:27.951Z,20.36
2023-05-20T10:42:32.278Z,20.35
2023-05-20T10:43:33.727Z,20.46
2023-05-20T10:44:45.574Z,20.78
2023-05-20T10:45:51.913Z,20.63
2023-05-20T10:47:23.817Z,21.19
2023-05-20T10:48:28.986Z,21.96
2023-05-20T10:49:35.176Z,21.35
2023-05-20T10:50:38.335Z,21.71
2023-05-20T10:51:39.994Z,22.13
2023-05-20T10:52:41.606Z,20.88
2023-05-20T10:53:46.195Z,20.96
2023-05-20T10:54:58.084Z,20.94
2023-05-20T10:55:59.585Z,21.93
2023-05-20T10:57:06.136Z,22.12
2023-05-20T10:58:07.998Z,22.49
2023-05-20T10:59:10.008Z,22.39
2023-05-20T11:00:13.276Z,22.26
2023-05-20T11:01:16.872Z,22.74
2023-05-20T11:02:19.727Z,22.13
2023-05-20T11:03:25.278Z,21.77
2023-05-20T11:04:28.658Z,22.05
2023-05-20T11:05:31.977Z,21.82
2023-05-20T11:06:34.176Z,21.78
2023-05-20T11:07:35.621Z,21.30
2023-05-20T11:08:37.061Z,21.25
2023-05-20T11:09:39.035Z,21.26
2023-05-20T11:10:42.381Z,20.95
2023-05-20T11:11:43.902Z,21.33
2023-05-20T11:12:45.652Z,21.74
2023-05-20T11:13:51.953Z,21.67
2023-05-20T11:14:54.046Z,21.31
2023-05-20T11:15:55.712Z,21.30
2023-05-20T11:16:59.074Z,20.98
2023-05-20T11:18:04.974Z,21.22
2023-05-20T11:19:15.593Z,21.71
2023-05-20T11:20:17.063Z,21.96
2023-05-20T11:21:19.940Z,21.79
2023-05-20T11:22:21.761Z,21.99
2023-05-20T11:23:23.804Z,22.34
2023-05-20T11:24:27.361Z,22.41
2023-05-20T11:25:29.001Z,22.33
2023-05-20T11:26:31.874Z,22.54
2023-05-20T11:27:34.189Z,22.66
2023-05-20T11:28:36.226Z,22.80
2023-05-20T11:29:40.723Z,23.15
2023-05-20T11:30:45.473Z,23.45
2023-05-20T11:31:49.809Z,23.87
2023-05-20T11:33:01.691Z,23.77
2023-05-20T11:34:04.283Z,23.47
2023-05-20T11:35:07.399Z,23.56
2023-05-20T11:36:26.279Z,23.70
2023-05-20T11:37:28.996Z,23.88
2023-05-20T11:38:30.609Z,23.68
2023-05-20T11:39:32.955Z,23.71
2023-05-20T11:40:46.273Z,22.97
2023-05-20T11:41:51.764Z,23.31
2023-05-20T11:42:58.138Z,23.83
2023-05-20T11:44:00.576Z,23.68
2023-05-20T11:45:02.768Z,23.57
2023-05-20T11:46:05.455Z,23.51
2023-05-20T11:47:06.904Z,23.91
2023-05-20T11:48:09.390Z,24.18
2023-05-20T11:49:10.948Z,23.63
2023-05-20T11:50:18.607Z,23.39
2023-05-20T11:51:29.507Z,23.50
2023-05-20T11:52:33.838Z,23.90
2023-05-20T11:53:35.326Z,23.43
2023-05-20T11:54:36.763Z,23.19
2023-05-20T11:55:56.020Z,23.04
2023-05-20T11:56:58.851Z,23.62
2023-05-20T11:58:01.617Z,23.45
2023-05-20T11:59:05.220Z,22.98
2023-05-20T12:00:09.981Z,23.23
2023-05-20T12:01:21.518Z,23.41
2023-05-20T12:02:24.478Z,23.27
2023-05-20T12:03:26.260Z,23.03
2023-05-20T12:04:27.924Z,22.48
2023-05-20T12:05:29.376Z,22.56
2023-05-20T12:06:31.595Z,22.50
2023-05-20T12:07:33.013Z,22.30
2023-05-20T12:08:34.523Z,22.22
2023-05-20T12:09:36.091Z,22.35
2023-05-20T12:10:38.064Z,22.37
2023-05-20T12:11:41.588Z,22.39
2023-05-20T12:12:45.392Z,22.55
2023-05-20T12:13:46.959Z,22.67
2023-05-20T12:14:48.369Z,22.54
2023-05-20T12:15:49.811Z,22.30
2023-05-20T12:16:52.624Z,22.16
2023-05-20T12:17:54.209Z,22.01
2023-05-20T12:18:55.787Z,22.05
2023-05-20T12:19:57.380Z,22.05
2023-05-20T12:20:59.614Z,21.91
2023-05-20T12:22:02.418Z,21.84
2023-05-20T12:23:04.594Z,21.67
2023-05-20T12:24:08.271Z,21.82
2023-05-20T12:25:12.157Z,21.97
2023-05-20T12:26:13.641Z,22.02
2023-05-20T12:27:15.034Z,22.11
2023-05-20T12:28:17.605Z,22.31
2023-05-20T12:29:19.737Z,22.37
2023-05-20T12:30:22.962Z,22.49
2023-05-20T12:31:25.740Z,22.43
2023-05-20T12:32:27.199Z,22.29
2023-05-20T12:33:28.720Z,22.70
2023-05-20T12:34:30.548Z,22.90
2023-05-20T12:35:39.202Z,23.27
2023-05-20T12:36:40.651Z,23.51
2023-05-20T12:37:43.167Z,23.00
2023-05-20T12:38:44.678Z,23.53
2023-05-20T12:39:46.598Z,24.32
2023-05-20T12:40:48.124Z,24.85
2023-05-20T12:41:49.578Z,25.03
2023-05-20T12:42:51.302Z,25.23
2023-05-20T12:43:52.753Z,25.32
2023-05-20T12:44:54.228Z,25.22
2023-05-20T12:45:56.155Z,25.53
2023-05-20T12:46:57.613Z,25.84
2023-05-20T12:47:59.564Z,25.88
2023-05-20T12:49:01.442Z,25.50
2023-05-20T12:50:03.750Z,25.90
2023-05-20T12:51:05.869Z,26.13
2023-05-20T12:52:11.837Z,26.18
2023-05-20T12:53:20.587Z,26.28
2023-05-20T12:54:22.031Z,26.52
2023-05-20T12:55:23.632Z,26.60
2023-05-20T12:56:26.361Z,26.64
2023-05-20T12:57:28.056Z,26.35
2023-05-20T12:58:29.582Z,25.11
2023-05-20T12:59:30.995Z,25.50
2023-05-20T13:00:32.666Z,25.53
2023-05-20T13:01:34.432Z,24.53
2023-05-20T13:02:39.672Z,24.75
2023-05-20T13:03:41.455Z,24.12
2023-05-20T13:04:42.958Z,24.55
2023-05-20T13:05:44.492Z,24.34
2023-05-20T13:06:45.928Z,24.83
2023-05-20T13:07:47.340Z,24.65
2023-05-20T13:08:48.809Z,24.21
2023-05-20T13:09:50.414Z,24.72
2023-05-20T13:10:51.864Z,25.26
2023-05-20T13:11:53.337Z,25.90
2023-05-20T13:12:54.756Z,25.89
2023-05-20T13:13:59.384Z,25.86
2023-05-20T13:15:00.848Z,25.76
2023-05-20T13:16:02.758Z,25.64
2023-05-20T13:17:04.598Z,25.01
2023-05-20T13:18:07.046Z,24.84
2023-05-20T13:19:08.795Z,25.10
2023-05-20T13:20:11.054Z,24.94
2023-05-20T13:21:12.438Z,24.18
2023-05-20T13:22:13.905Z,23.85
2023-05-20T13:23:15.444Z,23.88
2023-05-20T13:24:18.058Z,24.05
2023-05-20T13:25:19.556Z,24.01
2023-05-20T13:26:21.863Z,23.90
2023-05-20T13:27:23.314Z,23.77
2023-05-20T13:28:24.745Z,23.81
2023-05-20T13:29:26.758Z,23.85
2023-05-20T13:30:28.642Z,23.88
2023-05-20T13:31:30.130Z,24.05
2023-05-20T13:32:31.711Z,24.14
2023-05-20T13:33:33.128Z,24.17
2023-05-20T13:34:34.584Z,24.01
2023-05-20T13:35:45.327Z,23.81
2023-05-20T13:36:48.008Z,23.84
2023-05-20T13:37:49.548Z,23.23
2023-05-20T13:38:51.478Z,23.19
2023-05-20T13:39:52.962Z,23.43
2023-05-20T13:40:54.512Z,23.41
2023-05-20T13:41:56.400Z,23.15
2023-05-20T13:42:58.704Z,22.82
2023-05-20T13:44:00.073Z,22.95
2023-05-20T13:45:01.827Z,23.37
2023-05-20T13:46:03.397Z,23.67
2023-05-20T13:47:05.219Z,24.23
2023-05-20T13:48:06.852Z,24.24
2023-05-20T13:49:14.171Z,24.49
2023-05-20T13:50:19.925Z,24.64
2023-05-20T13:51:21.529Z,25.24
2023-05-20T13:52:22.939Z,25.58
2023-05-20T13:53:24.646Z,25.62
2023-05-20T13:54:26.158Z,25.87
2023-05-20T13:55:28.268Z,25.70
2023-05-20T13:56:29.892Z,26.13
2023-05-20T13:57:31.479Z,26.53
2023-05-20T13:58:32.899Z,26.94
2023-05-20T13:59:35.061Z,27.06
2023-05-20T14:00:37.330Z,26.58
2023-05-20T14:01:41.171Z,27.17
2023-05-20T14:02:42.970Z,27.67
2023-05-20T14:03:45.052Z,27.59
2023-05-20T14:04:47.082Z,27.08
2023-05-20T14:05:48.553Z,27.60
2023-05-20T14:06:50.071Z,27.48
2023-05-20T14:07:51.595Z,27.43
2023-05-20T14:08:55.186Z,28.01
2023-05-20T14:09:56.716Z,27.53
2023-05-20T14:10:58.442Z,27.17
2023-05-20T14:11:59.908Z,27.30
2023-05-20T14:13:02.148Z,26.96
2023-05-20T14:14:03.603Z,26.60
2023-05-20T14:15:05.570Z,27.30
2023-05-20T14:16:07.478Z,27.29
2023-05-20T14:17:09.054Z,26.72
2023-05-20T14:18:11.774Z,27.00
2023-05-20T14:19:13.462Z,26.94
2023-05-20T14:20:15.742Z,27.75
2023-05-20T14:21:17.143Z,27.58
2023-05-20T14:22:19.878Z,27.67
2023-05-20T14:23:21.461Z,27.33
2023-05-20T14:24:23.905Z,27.25
2023-05-20T14:25:25.748Z,27.26
2023-05-20T14:26:27.191Z,27.60
2023-05-20T14:27:30.396Z,26.59
2023-05-20T14:28:31.802Z,26.05
2023-05-20T14:29:33.220Z,25.89
2023-05-20T14:30:34.994Z,25.82
2023-05-20T14:31:38.616Z,25.92
2023-05-20T14:32:40.758Z,25.26
2023-05-20T14:33:42.256Z,25.03
2023-05-20T14:34:43.734Z,24.80
2023-05-20T14:35:45.544Z,24.71
2023-05-20T14:36:47.601Z,24.86
2023-05-20T14:37:49.187Z,24.77
2023-05-20T14:38:50.725Z,24.29
2023-05-20T14:39:52.285Z,24.62
2023-05-20T14:40:53.708Z,25.11
2023-05-20T14:41:55.155Z,25.52
2023-05-20T14:42:56.660Z,25.53
2023-05-20T14:43:58.199Z,24.13
2023-05-20T14:44:59.698Z,24.21
2023-05-20T14:46:02.591Z,24.49
2023-05-20T14:47:04.760Z,24.35
2023-05-20T14:48:07.035Z,24.29
2023-05-20T14:49:08.549Z,24.26
2023-05-20T14:50:10.680Z,24.16
2023-05-20T14:51:12.369Z,23.69
2023-05-20T14:52:13.810Z,23.73
2023-05-20T14:53:16.679Z,24.07
2023-05-20T14:54:19.104Z,24.08
2023-05-20T14:55:20.552Z,24.20
2023-05-20T14:56:22.720Z,24.16
2023-05-20T14:57:24.149Z,24.37
2023-05-20T14:58:26.044Z,24.41
2023-05-20T14:59:27.697Z,24.80
2023-05-20T15:00:29.116Z,25.03
2023-05-20T15:01:30.785Z,25.30
2023-05-20T15:02:32.327Z,25.20
2023-05-20T15:03:33.850Z,24.92
2023-05-20T15:04:35.540Z,24.91
2023-05-20T15:05:37.053Z,24.42
2023-05-20T15:06:38.769Z,24.44
2023-05-20T15:07:40.257Z,24.09
2023-05-20T15:08:42.175Z,24.23
2023-05-20T15:09:43.954Z,24.22
2023-05-20T15:10:45.706Z,24.24
2023-05-20T15:11:47.168Z,24.32
2023-05-20T15:12:48.642Z,24.40
2023-05-20T15:13:51.341Z,24.12
2023-05-20T15:14:52.751Z,24.29
2023-05-20T15:15:54.291Z,24.39
2023-05-20T15:16:55.830Z,24.46
2023-05-20T15:17:57.573Z,24.41
2023-05-20T15:18:59.145Z,24.39
2023-05-20T15:20:00.715Z,24.29
2023-05-20T15:21:02.280Z,23.99
2023-05-20T15:22:03.997Z,24.18
2023-05-20T15:23:05.499Z,24.26
2023-05-20T15:24:06.944Z,24.15
2023-05-20T15:25:08.417Z,24.20
2023-05-20T15:26:12.044Z,24.21
2023-05-20T15:27:13.506Z,23.77
2023-05-20T15:28:19.396Z,23.87
2023-05-20T15:29:24.439Z,23.84
2023-05-20T15:30:25.893Z,23.70
2023-05-20T15:31:27.342Z,23.69
2023-05-20T15:32:28.891Z,23.67
2023-05-20T15:33:30.682Z,23.71
2023-05-20T15:34:32.149Z,23.49
2023-05-20T15:35:33.563Z,23.27
2023-05-20T15:36:34.993Z,23.15
2023-05-20T15:37:36.450Z,22.81
2023-05-20T15:38:37.856Z,22.87
2023-05-20T15:39:39.405Z,22.98
2023-05-20T15:40:41.398Z,22.81
2023-05-20T15:41:43.202Z,22.93
2023-05-20T15:42:44.582Z,22.97
2023-05-20T15:43:46.026Z,23.03
2023-05-20T15:44:47.485Z,23.09
2023-05-20T15:45:48.985Z,22.96
2023-05-20T15:46:50.440Z,22.82
2023-05-20T15:47:51.953Z,22.77
2023-05-20T15:48:56.110Z,22.77
2023-05-20T15:49:57.964Z,22.55
2023-05-20T15:50:59.362Z,22.62
2023-05-20T15:52:03.476Z,22.55
2023-05-20T15:53:14.805Z,22.57
2023-05-20T15:54:16.217Z,22.41
2023-05-20T15:55:17.831Z,22.47
2023-05-20T15:56:19.490Z,22.36
2023-05-20T15:57:20.938Z,22.40
2023-05-20T15:58:22.403Z,22.35
2023-05-20T15:59:24.194Z,22.33
2023-05-20T16:00:25.739Z,22.20
2023-05-20T16:01:28.739Z,22.14
2023-05-20T16:03:33.512Z,22.18
2023-05-20T16:04:35.074Z,22.04
2023-05-20T16:05:37.336Z,22.10
2023-05-20T16:06:38.789Z,21.99
2023-05-20T16:07:42.119Z,21.94
2023-05-20T16:08:43.578Z,21.55
2023-05-20T16:09:45.022Z,21.75
2023-05-20T16:10:46.511Z,21.93
2023-05-20T16:11:48.011Z,21.93
2023-05-20T16:12:49.384Z,22.01
2023-05-20T16:13:50.818Z,21.93
2023-05-20T16:14:52.397Z,22.13
2023-05-20T16:15:57.477Z,22.16
2023-05-20T16:16:58.977Z,22.04
2023-05-20T16:18:00.412Z,22.21
2023-05-20T16:19:01.941Z,22.33
2023-05-20T16:20:06.867Z,22.35
2023-05-20T16:21:08.278Z,22.28
2023-05-20T16:22:09.720Z,22.21
2023-05-20T16:23:11.353Z,22.38
2023-05-20T16:24:12.879Z,22.42
2023-05-20T16:25:14.601Z,22.25
2023-05-20T16:26:16.179Z,22.30
2023-05-20T16:27:17.662Z,22.43
2023-05-20T16:28:19.206Z,22.49
2023-05-20T16:29:20.913Z,22.55
2023-05-20T16:30:22.306Z,22.77
2023-05-20T16:31:23.922Z,22.82
2023-05-20T16:32:25.737Z,22.78
2023-05-20T16:33:27.239Z,22.92
2023-05-20T16:34:28.755Z,22.92
2023-05-20T16:35:30.428Z,23.03
2023-05-20T16:36:31.973Z,22.95
2023-05-20T16:37:34.664Z,22.71
2023-05-20T16:38:36.440Z,22.71
2023-05-20T16:39:37.834Z,22.79
2023-05-20T16:40:39.301Z,22.86
2023-05-20T16:41:41.529Z,22.74
2023-05-20T16:42:44.175Z,22.75
2023-05-20T16:43:45.617Z,22.77
2023-05-20T16:44:49.958Z,22.61
2023-05-20T16:45:51.690Z,22.60
2023-05-20T16:46:54.291Z,22.21
2023-05-20T16:47:56.441Z,22.16
2023-05-20T16:48:57.998Z,22.01
2023-05-20T16:49:59.439Z,22.02
2023-05-20T16:51:01.122Z,21.85
2023-05-20T16:52:03.039Z,21.88
2023-05-20T16:53:04.638Z,21.73
2023-05-20T16:54:06.357Z,21.64
2023-05-20T16:55:08.499Z,21.63
2023-05-20T16:56:15.984Z,21.27
2023-05-20T16:57:18.781Z,21.45
2023-05-20T16:58:20.223Z,21.50
2023-05-20T16:59:24.853Z,21.54
2023-05-20T17:00:26.764Z,21.51
2023-05-20T17:01:28.991Z,21.44
2023-05-20T17:02:30.928Z,21.13
2023-05-20T17:03:32.513Z,21.11
2023-05-20T17:04:33.962Z,21.17
2023-05-20T17:05:35.574Z,21.27
2023-05-20T17:06:39.712Z,21.10
2023-05-20T17:07:41.183Z,20.93
